WAT5842 KAUS-KOKC
Flight info
| Callsign | WAT5842 |
|---|---|
| Flight time | 0h 57m |
| Altitude | 34000 |
| Route | ELOEL3 KLNGR MQP/N0458F330 TSDEL TSDEL3 |
| Aircraft | A21N/M-SDE2E3FGHIRWXY/LB1 |
Departure
| Time | 2026-04-23 22:26 |
|---|---|
| Airport | Austin Bergstrom International Airport (KAUS) |
Arrival
| Time | 2026-04-23 23:23 |
|---|---|
| Airport | OKC Will Rogers World Airport (KOKC) |
| Time | Latitude | Longitude | Altitude | Speed | Heading |
|---|---|---|---|---|---|
| 2026-04-23 21:47 | 30.20172 | -97.66363 | 499 ft | 0 kts | 359° |
| 2026-04-23 22:09 | 30.20171 | -97.66363 | 499 ft | 1 kts | 359° |
| 2026-04-23 22:09 | 30.20156 | -97.66363 | 499 ft | 2 kts | 359° |
| 2026-04-23 22:09 | 30.20147 | -97.66363 | 498 ft | 2 kts | 357° |
| 2026-04-23 22:09 | 30.20132 | -97.66359 | 498 ft | 2 kts | 337° |
| 2026-04-23 22:10 | 30.20119 | -97.66351 | 498 ft | 2 kts | 323° |
| 2026-04-23 22:10 | 30.20108 | -97.66339 | 498 ft | 2 kts | 308° |
| 2026-04-23 22:10 | 30.20100 | -97.66325 | 498 ft | 2 kts | 293° |
| 2026-04-23 22:10 | 30.20095 | -97.66308 | 497 ft | 2 kts | 278° |
| 2026-04-23 22:11 | 30.20095 | -97.66297 | 497 ft | 1 kts | 269° |
| 2026-04-23 22:11 | 30.20095 | -97.66291 | 497 ft | 0 kts | 268° |
| 2026-04-23 22:16 | 30.20095 | -97.66292 | 497 ft | 0 kts | 268° |
| 2026-04-23 22:17 | 30.20095 | -97.66293 | 497 ft | 0 kts | 268° |
| 2026-04-23 22:17 | 30.20095 | -97.66294 | 497 ft | 0 kts | 268° |
| 2026-04-23 22:17 | 30.20095 | -97.66295 | 497 ft | 0 kts | 268° |
| 2026-04-23 22:17 | 30.20095 | -97.66296 | 497 ft | 0 kts | 268° |
| 2026-04-23 22:18 | 30.20094 | -97.66318 | 498 ft | 6 kts | 268° |
| 2026-04-23 22:18 | 30.20092 | -97.66371 | 498 ft | 7 kts | 267° |
| 2026-04-23 22:18 | 30.20089 | -97.66433 | 498 ft | 8 kts | 268° |
| 2026-04-23 22:18 | 30.20087 | -97.66499 | 499 ft | 8 kts | 261° |
| 2026-04-23 22:19 | 30.20072 | -97.66569 | 500 ft | 8 kts | 256° |
| 2026-04-23 22:19 | 30.20063 | -97.66642 | 501 ft | 9 kts | 267° |
| 2026-04-23 22:19 | 30.20063 | -97.66731 | 501 ft | 12 kts | 274° |
| 2026-04-23 22:19 | 30.20079 | -97.66843 | 503 ft | 15 kts | 288° |
| 2026-04-23 22:20 | 30.20095 | -97.66971 | 504 ft | 17 kts | 268° |
| 2026-04-23 22:20 | 30.20091 | -97.67111 | 505 ft | 17 kts | 268° |
| 2026-04-23 22:20 | 30.20088 | -97.67252 | 506 ft | 17 kts | 269° |
| 2026-04-23 22:20 | 30.20098 | -97.67321 | 507 ft | 9 kts | 304° |
| 2026-04-23 22:21 | 30.20169 | -97.67338 | 508 ft | 12 kts | 360° |
| 2026-04-23 22:21 | 30.20267 | -97.67341 | 509 ft | 15 kts | 359° |
| 2026-04-23 22:21 | 30.20386 | -97.67343 | 511 ft | 18 kts | 358° |
| 2026-04-23 22:21 | 30.20531 | -97.67348 | 514 ft | 22 kts | 358° |
| 2026-04-23 22:22 | 30.20684 | -97.67360 | 517 ft | 21 kts | 347° |
| 2026-04-23 22:22 | 30.20828 | -97.67406 | 519 ft | 21 kts | 344° |
| 2026-04-23 22:22 | 30.20967 | -97.67449 | 522 ft | 20 kts | 344° |
| 2026-04-23 22:22 | 30.21102 | -97.67494 | 525 ft | 19 kts | 345° |
| 2026-04-23 22:23 | 30.21236 | -97.67535 | 528 ft | 19 kts | 346° |
| 2026-04-23 22:23 | 30.21344 | -97.67612 | 530 ft | 18 kts | 287° |
| 2026-04-23 22:23 | 30.21348 | -97.67750 | 532 ft | 16 kts | 268° |
| 2026-04-23 22:23 | 30.21346 | -97.67815 | 533 ft | 0 kts | 268° |
| 2026-04-23 22:24 | 30.21346 | -97.67816 | 533 ft | 0 kts | 268° |
| 2026-04-23 22:24 | 30.21344 | -97.67886 | 533 ft | 14 kts | 265° |
| 2026-04-23 22:24 | 30.21279 | -97.67937 | 533 ft | 0 kts | 178° |
| 2026-04-23 22:25 | 30.21263 | -97.67937 | 533 ft | 19 kts | 178° |
| 2026-04-23 22:25 | 30.20835 | -97.67924 | 526 ft | 101 kts | 178° |
| 2026-04-23 22:25 | 30.19887 | -97.67896 | 512 ft | 166 kts | 178° |
| 2026-04-23 22:25 | 30.18617 | -97.67871 | 845 ft | 193 kts | 178° |
| 2026-04-23 22:26 | 30.17299 | -97.67841 | 1842 ft | 190 kts | 178° |
| 2026-04-23 22:26 | 30.16059 | -97.67809 | 2956 ft | 176 kts | 178° |
| 2026-04-23 22:26 | 30.14896 | -97.67781 | 3902 ft | 164 kts | 178° |
| 2026-04-23 22:26 | 30.13824 | -97.67863 | 4695 ft | 156 kts | 199° |
| 2026-04-23 22:27 | 30.13020 | -97.68764 | 5115 ft | 177 kts | 244° |
| 2026-04-23 22:27 | 30.12947 | -97.70258 | 5533 ft | 203 kts | 283° |
| 2026-04-23 22:27 | 30.13858 | -97.71598 | 5948 ft | 230 kts | 325° |
| 2026-04-23 22:27 | 30.15431 | -97.72226 | 6411 ft | 251 kts | 345° |
| 2026-04-23 22:28 | 30.17247 | -97.72602 | 6820 ft | 275 kts | 349° |
| 2026-04-23 22:28 | 30.19189 | -97.72962 | 7360 ft | 291 kts | 348° |
| 2026-04-23 22:28 | 30.21210 | -97.73364 | 8130 ft | 297 kts | 347° |
| 2026-04-23 22:28 | 30.23230 | -97.73797 | 8967 ft | 299 kts | 347° |
| 2026-04-23 22:29 | 30.25256 | -97.74253 | 9796 ft | 300 kts | 346° |
| 2026-04-23 22:29 | 30.27285 | -97.74719 | 10563 ft | 303 kts | 346° |
| 2026-04-23 22:29 | 30.29406 | -97.75217 | 11014 ft | 319 kts | 345° |
| 2026-04-23 22:29 | 30.31631 | -97.75746 | 11388 ft | 336 kts | 345° |
| 2026-04-23 22:30 | 30.33985 | -97.76308 | 11940 ft | 347 kts | 345° |
| 2026-04-23 22:30 | 30.36345 | -97.76868 | 12772 ft | 348 kts | 345° |
| 2026-04-23 22:30 | 30.38674 | -97.77420 | 13621 ft | 348 kts | 345° |
| 2026-04-23 22:30 | 30.41047 | -97.77987 | 14381 ft | 351 kts | 345° |
| 2026-04-23 22:31 | 30.43444 | -97.78562 | 15065 ft | 356 kts | 344° |
| 2026-04-23 22:31 | 30.45877 | -97.79146 | 15765 ft | 360 kts | 344° |
| 2026-04-23 22:31 | 30.48345 | -97.79739 | 16432 ft | 364 kts | 345° |
| 2026-04-23 22:31 | 30.50840 | -97.80338 | 17103 ft | 368 kts | 345° |
| 2026-04-23 22:32 | 30.53345 | -97.80937 | 17765 ft | 372 kts | 344° |
| 2026-04-23 22:32 | 30.55893 | -97.81547 | 18445 ft | 375 kts | 344° |
| 2026-04-23 22:32 | 30.58435 | -97.82156 | 19107 ft | 377 kts | 344° |
| 2026-04-23 22:32 | 30.60998 | -97.82773 | 19764 ft | 380 kts | 344° |
| 2026-04-23 22:33 | 30.63602 | -97.83397 | 20414 ft | 383 kts | 343° |
| 2026-04-23 22:33 | 30.66231 | -97.84029 | 21051 ft | 385 kts | 343° |
| 2026-04-23 22:33 | 30.68853 | -97.84663 | 21681 ft | 387 kts | 343° |
| 2026-04-23 22:33 | 30.71489 | -97.85297 | 22295 ft | 389 kts | 343° |
| 2026-04-23 22:34 | 30.74086 | -97.85998 | 22886 ft | 389 kts | 340° |
| 2026-04-23 22:34 | 30.76714 | -97.86888 | 23493 ft | 390 kts | 337° |
| 2026-04-23 22:34 | 30.79277 | -97.87830 | 24055 ft | 391 kts | 337° |
| 2026-04-23 22:34 | 30.81871 | -97.88802 | 24607 ft | 393 kts | 336° |
| 2026-04-23 22:35 | 30.84459 | -97.89771 | 25133 ft | 394 kts | 336° |
| 2026-04-23 22:35 | 30.87073 | -97.90747 | 25621 ft | 396 kts | 336° |
| 2026-04-23 22:35 | 30.89700 | -97.91727 | 26120 ft | 398 kts | 336° |
| 2026-04-23 22:35 | 30.92363 | -97.92717 | 26603 ft | 399 kts | 336° |
| 2026-04-23 22:36 | 30.94978 | -97.93687 | 27025 ft | 401 kts | 336° |
| 2026-04-23 22:36 | 30.97656 | -97.94679 | 27449 ft | 403 kts | 335° |
| 2026-04-23 22:36 | 31.00304 | -97.95661 | 27879 ft | 404 kts | 335° |
| 2026-04-23 22:36 | 31.03006 | -97.96665 | 28293 ft | 405 kts | 335° |
| 2026-04-23 22:37 | 31.05676 | -97.97659 | 28714 ft | 406 kts | 335° |
| 2026-04-23 22:37 | 31.08345 | -97.98650 | 29112 ft | 407 kts | 335° |
| 2026-04-23 22:37 | 31.11060 | -97.99663 | 29497 ft | 408 kts | 335° |
| 2026-04-23 22:37 | 31.13771 | -98.00671 | 29860 ft | 409 kts | 335° |
| 2026-04-23 22:38 | 31.16473 | -98.01575 | 30296 ft | 411 kts | 338° |
| 2026-04-23 22:38 | 31.19264 | -98.02332 | 30830 ft | 411 kts | 341° |
| 2026-04-23 22:38 | 31.22064 | -98.02914 | 31365 ft | 410 kts | 343° |
| 2026-04-23 22:38 | 31.24884 | -98.03327 | 31833 ft | 411 kts | 346° |
| 2026-04-23 22:39 | 31.27729 | -98.03568 | 32294 ft | 412 kts | 348° |
| 2026-04-23 22:39 | 31.30566 | -98.03639 | 32731 ft | 412 kts | 351° |
| 2026-04-23 22:39 | 31.33445 | -98.03583 | 33246 ft | 409 kts | 352° |
| 2026-04-23 22:39 | 31.36241 | -98.03511 | 33694 ft | 406 kts | 352° |
| 2026-04-23 22:40 | 31.39054 | -98.03430 | 33853 ft | 405 kts | 352° |
| 2026-04-23 22:40 | 31.41889 | -98.03351 | 33854 ft | 405 kts | 352° |
| 2026-04-23 22:41 | 31.50312 | -98.03123 | 33859 ft | 406 kts | 351° |
| 2026-04-23 22:41 | 31.55922 | -98.02974 | 33859 ft | 405 kts | 352° |
| 2026-04-23 22:42 | 31.61566 | -98.02818 | 33856 ft | 405 kts | 351° |
| 2026-04-23 22:42 | 31.67188 | -98.02661 | 33859 ft | 405 kts | 351° |
| 2026-04-23 22:43 | 31.72823 | -98.02510 | 33843 ft | 407 kts | 351° |
| 2026-04-23 22:43 | 31.78461 | -98.02355 | 33848 ft | 407 kts | 352° |
| 2026-04-23 22:44 | 31.84122 | -98.02198 | 33846 ft | 407 kts | 351° |
| 2026-04-23 22:44 | 31.89781 | -98.02042 | 33838 ft | 408 kts | 352° |
| 2026-04-23 22:45 | 31.95431 | -98.01887 | 33960 ft | 411 kts | 351° |
| 2026-04-23 22:45 | 31.98317 | -98.01808 | 34278 ft | 411 kts | 351° |
| 2026-04-23 22:45 | 32.01143 | -98.01728 | 34641 ft | 409 kts | 351° |
| 2026-04-23 22:45 | 32.03987 | -98.01646 | 34958 ft | 408 kts | 351° |
| 2026-04-23 22:46 | 32.06795 | -98.01569 | 35187 ft | 409 kts | 351° |
| 2026-04-23 22:46 | 32.09615 | -98.01492 | 35412 ft | 409 kts | 351° |
| 2026-04-23 22:46 | 32.12447 | -98.01414 | 35643 ft | 410 kts | 350° |
| 2026-04-23 22:46 | 32.15314 | -98.01335 | 35829 ft | 410 kts | 351° |
| 2026-04-23 22:47 | 32.18160 | -98.01257 | 35833 ft | 412 kts | 350° |
| 2026-04-23 22:47 | 32.23877 | -98.01100 | 35838 ft | 413 kts | 351° |
| 2026-04-23 22:48 | 32.29609 | -98.00940 | 35835 ft | 413 kts | 351° |
| 2026-04-23 22:48 | 32.35361 | -98.00780 | 35826 ft | 412 kts | 351° |
| 2026-04-23 22:49 | 32.41048 | -98.00623 | 35809 ft | 413 kts | 351° |
| 2026-04-23 22:49 | 32.46778 | -98.00466 | 35813 ft | 414 kts | 351° |
| 2026-04-23 22:50 | 32.52504 | -98.00301 | 35808 ft | 414 kts | 351° |
| 2026-04-23 22:50 | 32.58194 | -98.00144 | 35804 ft | 414 kts | 350° |
| 2026-04-23 22:51 | 32.63931 | -97.99985 | 35803 ft | 416 kts | 351° |
| 2026-04-23 22:51 | 32.69657 | -97.99705 | 35801 ft | 419 kts | 354° |
| 2026-04-23 22:52 | 32.75469 | -97.98773 | 35802 ft | 430 kts | 359° |
| 2026-04-23 22:52 | 32.81258 | -97.97182 | 35804 ft | 433 kts | 3° |
| 2026-04-23 22:53 | 32.87000 | -97.95446 | 35800 ft | 433 kts | 3° |
| 2026-04-23 22:53 | 32.92712 | -97.93716 | 35803 ft | 434 kts | 3° |
| 2026-04-23 22:54 | 32.98501 | -97.91969 | 35808 ft | 434 kts | 3° |
| 2026-04-23 22:54 | 33.04225 | -97.90238 | 35811 ft | 435 kts | 3° |
| 2026-04-23 22:55 | 33.09999 | -97.88495 | 35803 ft | 435 kts | 3° |
| 2026-04-23 22:55 | 33.15731 | -97.86759 | 35799 ft | 436 kts | 3° |
| 2026-04-23 22:56 | 33.21581 | -97.84985 | 35800 ft | 436 kts | 3° |
| 2026-04-23 22:56 | 33.27375 | -97.83226 | 35794 ft | 437 kts | 3° |
| 2026-04-23 22:57 | 33.33213 | -97.81451 | 35791 ft | 437 kts | 3° |
| 2026-04-23 22:57 | 33.39085 | -97.79665 | 35790 ft | 436 kts | 4° |
| 2026-04-23 22:58 | 33.44924 | -97.77885 | 35782 ft | 437 kts | 4° |
| 2026-04-23 22:58 | 33.50803 | -97.76092 | 35773 ft | 437 kts | 4° |
| 2026-04-23 22:59 | 33.56691 | -97.74292 | 35778 ft | 436 kts | 4° |
| 2026-04-23 22:59 | 33.62552 | -97.72497 | 35772 ft | 438 kts | 4° |
| 2026-04-23 23:00 | 33.68482 | -97.70679 | 35721 ft | 438 kts | 4° |
| 2026-04-23 23:00 | 33.71404 | -97.69785 | 35339 ft | 438 kts | 4° |
| 2026-04-23 23:00 | 33.74366 | -97.68874 | 34765 ft | 438 kts | 4° |
| 2026-04-23 23:00 | 33.77300 | -97.67972 | 34065 ft | 438 kts | 4° |
| 2026-04-23 23:01 | 33.80268 | -97.67061 | 33364 ft | 439 kts | 4° |
| 2026-04-23 23:01 | 33.83248 | -97.66148 | 32697 ft | 440 kts | 5° |
| 2026-04-23 23:01 | 33.86194 | -97.65247 | 31987 ft | 441 kts | 5° |
| 2026-04-23 23:01 | 33.89186 | -97.64327 | 31232 ft | 444 kts | 6° |
| 2026-04-23 23:02 | 33.92155 | -97.63416 | 30451 ft | 447 kts | 6° |
| 2026-04-23 23:02 | 33.95178 | -97.62486 | 29645 ft | 451 kts | 7° |
| 2026-04-23 23:02 | 33.98213 | -97.61548 | 29033 ft | 449 kts | 7° |
| 2026-04-23 23:02 | 34.01246 | -97.60604 | 28502 ft | 446 kts | 7° |
| 2026-04-23 23:03 | 34.04230 | -97.59676 | 27989 ft | 442 kts | 7° |
| 2026-04-23 23:03 | 34.07175 | -97.58760 | 27487 ft | 439 kts | 8° |
| 2026-04-23 23:03 | 34.10131 | -97.57842 | 26969 ft | 436 kts | 8° |
| 2026-04-23 23:03 | 34.13069 | -97.56930 | 26460 ft | 433 kts | 8° |
| 2026-04-23 23:04 | 34.15916 | -97.56047 | 25974 ft | 430 kts | 8° |
| 2026-04-23 23:04 | 34.18805 | -97.55151 | 25464 ft | 427 kts | 8° |
| 2026-04-23 23:04 | 34.21675 | -97.54259 | 24960 ft | 424 kts | 8° |
| 2026-04-23 23:04 | 34.24529 | -97.53372 | 24452 ft | 422 kts | 8° |
| 2026-04-23 23:05 | 34.27323 | -97.52502 | 23945 ft | 420 kts | 8° |
| 2026-04-23 23:05 | 34.30128 | -97.51630 | 23441 ft | 418 kts | 9° |
| 2026-04-23 23:05 | 34.32929 | -97.50758 | 22952 ft | 416 kts | 9° |
| 2026-04-23 23:05 | 34.35722 | -97.49884 | 22462 ft | 414 kts | 9° |
| 2026-04-23 23:06 | 34.38487 | -97.49020 | 21969 ft | 411 kts | 9° |
| 2026-04-23 23:06 | 34.41247 | -97.48158 | 21483 ft | 409 kts | 9° |
| 2026-04-23 23:06 | 34.43992 | -97.47300 | 20997 ft | 407 kts | 9° |
| 2026-04-23 23:06 | 34.46703 | -97.46453 | 20517 ft | 405 kts | 9° |
| 2026-04-23 23:07 | 34.49407 | -97.45606 | 20025 ft | 403 kts | 9° |
| 2026-04-23 23:07 | 34.52137 | -97.44751 | 19544 ft | 400 kts | 8° |
| 2026-04-23 23:07 | 34.54821 | -97.43911 | 19066 ft | 398 kts | 8° |
| 2026-04-23 23:07 | 34.57492 | -97.43074 | 18571 ft | 396 kts | 8° |
| 2026-04-23 23:08 | 34.60122 | -97.42248 | 18099 ft | 394 kts | 8° |
| 2026-04-23 23:08 | 34.62781 | -97.41414 | 17633 ft | 391 kts | 8° |
| 2026-04-23 23:08 | 34.65367 | -97.40603 | 17177 ft | 389 kts | 8° |
| 2026-04-23 23:08 | 34.68004 | -97.39777 | 16693 ft | 387 kts | 8° |
| 2026-04-23 23:09 | 34.70589 | -97.38965 | 16225 ft | 385 kts | 8° |
| 2026-04-23 23:09 | 34.73171 | -97.38154 | 15758 ft | 383 kts | 9° |
| 2026-04-23 23:09 | 34.75702 | -97.37357 | 15282 ft | 382 kts | 9° |
| 2026-04-23 23:09 | 34.78211 | -97.36566 | 14812 ft | 381 kts | 9° |
| 2026-04-23 23:10 | 34.80776 | -97.35757 | 14436 ft | 376 kts | 9° |
| 2026-04-23 23:10 | 34.83158 | -97.35002 | 14245 ft | 366 kts | 9° |
| 2026-04-23 23:10 | 34.85529 | -97.34250 | 14115 ft | 352 kts | 9° |
| 2026-04-23 23:10 | 34.87844 | -97.33535 | 13956 ft | 334 kts | 5° |
| 2026-04-23 23:11 | 34.90070 | -97.33531 | 13748 ft | 312 kts | 340° |
| 2026-04-23 23:11 | 34.91972 | -97.34570 | 13344 ft | 298 kts | 321° |
| 2026-04-23 23:11 | 34.93693 | -97.35942 | 12961 ft | 294 kts | 320° |
| 2026-04-23 23:11 | 34.95395 | -97.37309 | 12593 ft | 291 kts | 320° |
| 2026-04-23 23:12 | 34.97086 | -97.38641 | 12230 ft | 290 kts | 320° |
| 2026-04-23 23:12 | 34.98764 | -97.39947 | 11868 ft | 288 kts | 320° |
| 2026-04-23 23:12 | 35.00452 | -97.41246 | 11515 ft | 287 kts | 320° |
| 2026-04-23 23:12 | 35.02135 | -97.42533 | 11173 ft | 285 kts | 320° |
| 2026-04-23 23:13 | 35.03822 | -97.43823 | 10822 ft | 284 kts | 321° |
| 2026-04-23 23:13 | 35.05493 | -97.45100 | 10460 ft | 283 kts | 321° |
| 2026-04-23 23:13 | 35.07229 | -97.46235 | 10103 ft | 288 kts | 332° |
| 2026-04-23 23:13 | 35.09179 | -97.46822 | 9758 ft | 296 kts | 347° |
| 2026-04-23 23:14 | 35.11259 | -97.47004 | 9420 ft | 298 kts | 351° |
| 2026-04-23 23:14 | 35.13305 | -97.47098 | 9085 ft | 297 kts | 351° |
| 2026-04-23 23:14 | 35.15335 | -97.47195 | 8752 ft | 296 kts | 351° |
| 2026-04-23 23:14 | 35.17388 | -97.47308 | 8412 ft | 295 kts | 351° |
| 2026-04-23 23:15 | 35.19418 | -97.47430 | 8077 ft | 293 kts | 351° |
| 2026-04-23 23:15 | 35.21441 | -97.47556 | 7837 ft | 287 kts | 350° |
| 2026-04-23 23:15 | 35.23416 | -97.47679 | 7557 ft | 282 kts | 351° |
| 2026-04-23 23:15 | 35.25359 | -97.47804 | 7310 ft | 277 kts | 351° |
| 2026-04-23 23:16 | 35.27218 | -97.47922 | 7182 ft | 266 kts | 351° |
| 2026-04-23 23:16 | 35.29072 | -97.48041 | 7078 ft | 266 kts | 350° |
| 2026-04-23 23:16 | 35.30928 | -97.48165 | 6834 ft | 268 kts | 350° |
| 2026-04-23 23:16 | 35.32769 | -97.48285 | 6547 ft | 265 kts | 350° |
| 2026-04-23 23:17 | 35.34606 | -97.48404 | 6240 ft | 264 kts | 351° |
| 2026-04-23 23:17 | 35.36449 | -97.48523 | 6119 ft | 264 kts | 350° |
| 2026-04-23 23:17 | 35.38258 | -97.48641 | 5987 ft | 261 kts | 351° |
| 2026-04-23 23:17 | 35.40078 | -97.48691 | 5708 ft | 260 kts | 354° |
| 2026-04-23 23:18 | 35.41883 | -97.48692 | 5568 ft | 255 kts | 355° |
| 2026-04-23 23:18 | 35.43672 | -97.48686 | 5196 ft | 258 kts | 355° |
| 2026-04-23 23:18 | 35.45470 | -97.48688 | 4710 ft | 260 kts | 356° |
| 2026-04-23 23:18 | 35.47228 | -97.49023 | 4370 ft | 249 kts | 334° |
| 2026-04-23 23:19 | 35.48603 | -97.50078 | 4091 ft | 224 kts | 308° |
| 2026-04-23 23:19 | 35.49459 | -97.51527 | 3857 ft | 199 kts | 284° |
| 2026-04-23 23:19 | 35.49816 | -97.53100 | 3711 ft | 189 kts | 265° |
| 2026-04-23 23:19 | 35.49771 | -97.54634 | 3411 ft | 170 kts | 248° |
| 2026-04-23 23:20 | 35.49431 | -97.55913 | 3177 ft | 148 kts | 232° |
| 2026-04-23 23:20 | 35.48933 | -97.56897 | 2982 ft | 126 kts | 219° |
| 2026-04-23 23:20 | 35.48367 | -97.57619 | 2797 ft | 111 kts | 210° |
| 2026-04-23 23:20 | 35.47727 | -97.58160 | 2728 ft | 113 kts | 201° |
| 2026-04-23 23:21 | 35.47007 | -97.58561 | 2587 ft | 113 kts | 193° |
| 2026-04-23 23:21 | 35.46252 | -97.58813 | 2371 ft | 112 kts | 186° |
| 2026-04-23 23:21 | 35.45465 | -97.58922 | 2186 ft | 115 kts | 182° |
| 2026-04-23 23:21 | 35.44666 | -97.58946 | 2108 ft | 116 kts | 180° |
| 2026-04-23 23:22 | 35.43855 | -97.58935 | 2044 ft | 115 kts | 179° |
| 2026-04-23 23:22 | 35.43042 | -97.58923 | 1885 ft | 118 kts | 179° |
| 2026-04-23 23:22 | 35.42209 | -97.58907 | 1724 ft | 121 kts | 179° |
| 2026-04-23 23:22 | 35.41375 | -97.58909 | 1567 ft | 120 kts | 179° |
| 2026-04-23 23:23 | 35.40539 | -97.58917 | 1341 ft | 120 kts | 179° |
| 2026-04-23 23:23 | 35.39742 | -97.58915 | 1290 ft | 105 kts | 178° |
| 2026-04-23 23:23 | 35.39297 | -97.58913 | 1292 ft | 20 kts | 180° |
| 2026-04-23 23:23 | 35.39210 | -97.58987 | 1292 ft | 15 kts | 269° |
| 2026-04-23 23:24 | 35.39210 | -97.59109 | 1292 ft | 13 kts | 271° |
| 2026-04-23 23:24 | 35.39210 | -97.59219 | 1292 ft | 12 kts | 269° |
| 2026-04-23 23:24 | 35.39207 | -97.59323 | 1291 ft | 12 kts | 268° |
| 2026-04-23 23:24 | 35.39206 | -97.59425 | 1291 ft | 11 kts | 271° |
| 2026-04-23 23:25 | 35.39225 | -97.59519 | 1291 ft | 11 kts | 313° |
| 2026-04-23 23:25 | 35.39306 | -97.59541 | 1292 ft | 12 kts | 2° |
| 2026-04-23 23:25 | 35.39393 | -97.59547 | 1292 ft | 12 kts | 348° |
| 2026-04-23 23:25 | 35.39448 | -97.59560 | 1293 ft | 2 kts | 352° |
| 2026-04-23 23:26 | 35.39450 | -97.59560 | 1293 ft | 0 kts | 352° |